createdAt,value
2022-08-05T00:04:57.221Z,29.12
2022-08-05T00:09:59.230Z,29.10
2022-08-05T00:15:54.313Z,29.04
2022-08-05T00:20:23.160Z,29.00
2022-08-05T00:25:41.588Z,28.98
2022-08-05T00:30:52.097Z,28.89
2022-08-05T00:36:15.888Z,28.78
2022-08-05T00:41:29.022Z,28.75
2022-08-05T00:46:54.285Z,28.66
2022-08-05T00:52:04.426Z,28.60
2022-08-05T00:57:06.304Z,28.56
2022-08-05T01:02:08.134Z,28.48
2022-08-05T01:07:13.765Z,28.43
2022-08-05T01:12:18.496Z,28.46
2022-08-05T01:17:30.511Z,28.43
2022-08-05T01:22:41.103Z,28.36
2022-08-05T01:28:09.178Z,28.22
2022-08-05T01:33:11.779Z,28.21
2022-08-05T01:38:24.899Z,28.12
2022-08-05T01:43:32.173Z,28.07
2022-08-05T01:48:35.565Z,28.00
2022-08-05T01:53:56.897Z,27.99
2022-08-05T01:59:04.793Z,27.88
2022-08-05T02:04:07.082Z,27.74
2022-08-05T02:09:09.005Z,27.66
2022-08-05T02:14:19.628Z,27.70
2022-08-05T02:19:27.570Z,27.64
2022-08-05T02:24:36.952Z,27.55
2022-08-05T02:29:58.741Z,27.51
2022-08-05T02:35:13.359Z,27.43
2022-08-05T02:40:19.898Z,27.35
2022-08-05T02:45:25.312Z,27.29
2022-08-05T02:50:27.839Z,27.21
2022-08-05T02:55:53.730Z,27.16
2022-08-05T03:00:55.086Z,27.18
2022-08-05T03:06:53.647Z,27.09
2022-08-05T03:11:57.015Z,27.03
2022-08-05T03:16:44.050Z,27.00
2022-08-05T03:21:48.681Z,26.92
2022-08-05T03:26:51.386Z,26.89
2022-08-05T03:31:55.677Z,26.79
2022-08-05T03:36:58.271Z,26.74
2022-08-05T03:42:00.150Z,26.63
2022-08-05T03:47:04.061Z,26.48
2022-08-05T03:52:48.882Z,26.48
2022-08-05T03:57:41.739Z,26.42
2022-08-05T04:02:57.857Z,26.35
2022-08-05T04:08:03.279Z,26.28
2022-08-05T04:13:08.114Z,26.28
2022-08-05T04:18:12.724Z,26.10
2022-08-05T04:24:05.931Z,26.06
2022-08-05T04:28:50.791Z,25.95
2022-08-05T04:33:54.660Z,25.88
2022-08-05T04:39:15.767Z,25.80
2022-08-05T04:44:21.390Z,25.76
2022-08-05T04:49:38.522Z,25.66
2022-08-05T04:54:53.484Z,25.65
2022-08-05T04:59:59.065Z,25.57
2022-08-05T05:05:01.994Z,25.48
2022-08-05T05:10:06.646Z,25.32
2022-08-05T05:15:10.873Z,25.39
2022-08-05T05:20:14.054Z,25.28
2022-08-05T05:25:16.535Z,25.19
2022-08-05T05:30:29.276Z,25.14
2022-08-05T05:35:34.406Z,25.15
2022-08-05T05:40:45.073Z,25.08
2022-08-05T05:45:51.426Z,25.03
2022-08-05T05:50:53.356Z,24.92
2022-08-05T05:56:01.382Z,24.96
2022-08-05T06:01:13.328Z,24.91
2022-08-05T06:06:17.260Z,24.95
2022-08-05T06:11:19.060Z,24.99
2022-08-05T06:16:30.074Z,24.94
2022-08-05T06:21:37.544Z,24.96
2022-08-05T06:26:45.875Z,24.96
2022-08-05T06:31:53.892Z,25.05
2022-08-05T06:36:56.738Z,25.08
2022-08-05T06:42:04.380Z,25.09
2022-08-05T06:47:06.800Z,25.12
2022-08-05T06:52:36.774Z,25.19
2022-08-05T06:58:02.863Z,25.35
2022-08-05T07:02:56.241Z,25.42
2022-08-05T07:07:58.116Z,25.55
2022-08-05T07:13:52.456Z,25.75
2022-08-05T07:18:47.949Z,25.94
2022-08-05T07:23:52.258Z,26.11
2022-08-05T07:28:54.474Z,26.21
2022-08-05T07:33:56.396Z,26.31
2022-08-05T07:39:05.693Z,26.42
2022-08-05T07:44:18.398Z,26.46
2022-08-05T07:49:20.785Z,26.72
2022-08-05T07:54:31.329Z,26.90
2022-08-05T07:59:40.055Z,27.00
2022-08-05T08:04:42.751Z,27.07
2022-08-05T08:09:46.935Z,27.24
2022-08-05T08:14:50.072Z,27.38
2022-08-05T08:20:23.479Z,27.66
2022-08-05T08:25:16.367Z,27.87
2022-08-05T08:30:30.138Z,28.25
2022-08-05T08:35:40.935Z,28.76
2022-08-05T08:40:50.483Z,29.06
2022-08-05T08:45:54.603Z,29.37
2022-08-05T08:51:23.113Z,30.35
2022-08-05T08:56:19.467Z,31.15
2022-08-05T09:01:24.165Z,32.16
2022-08-05T09:06:30.248Z,32.65
2022-08-05T09:11:51.783Z,33.31
2022-08-05T09:16:55.630Z,34.01
2022-08-05T09:22:22.028Z,35.14
2022-08-05T09:28:05.812Z,35.85
2022-08-05T09:33:01.975Z,35.93
2022-08-05T09:38:12.415Z,36.67
2022-08-05T09:43:41.005Z,37.41
2022-08-05T09:49:06.467Z,37.95
2022-08-05T09:54:10.109Z,38.13
2022-08-05T09:59:17.052Z,37.40
2022-08-05T10:04:19.460Z,37.78
2022-08-05T10:09:44.883Z,37.86
2022-08-05T10:14:47.452Z,37.99
2022-08-05T10:20:02.850Z,37.34
2022-08-05T10:25:07.522Z,37.87
2022-08-05T10:32:50.892Z,38.89
2022-08-05T10:35:33.649Z,38.71
2022-08-05T10:40:58.002Z,39.39
2022-08-05T10:46:06.774Z,38.71
2022-08-05T10:51:22.164Z,39.56
2022-08-05T10:56:27.001Z,39.02
2022-08-05T11:01:54.913Z,38.91
2022-08-05T11:07:01.501Z,40.06
2022-08-05T11:12:03.875Z,40.26
2022-08-05T11:18:00.052Z,40.05
2022-08-05T11:22:53.958Z,40.24
2022-08-05T11:28:17.425Z,39.49
2022-08-05T11:33:34.754Z,39.88
2022-08-05T11:38:51.764Z,39.58
2022-08-05T11:44:06.989Z,39.97
2022-08-05T11:49:14.764Z,39.50
2022-08-05T11:54:33.419Z,39.37
2022-08-05T11:59:49.373Z,38.91
2022-08-05T12:04:59.340Z,38.21
2022-08-05T12:10:09.485Z,37.95
2022-08-05T12:15:38.338Z,37.79
2022-08-05T12:20:40.766Z,37.80
2022-08-05T12:25:56.614Z,37.69
2022-08-05T12:31:02.297Z,37.36
2022-08-05T12:36:08.229Z,37.21
2022-08-05T12:41:13.459Z,37.11
2022-08-05T12:46:29.270Z,36.77
2022-08-05T12:52:12.389Z,36.62
2022-08-05T12:56:59.457Z,36.58
2022-08-05T13:02:08.244Z,36.57
2022-08-05T13:07:16.014Z,36.18
2022-08-05T13:12:21.515Z,36.19
2022-08-05T13:17:42.247Z,36.20
2022-08-05T13:22:52.669Z,36.20
2022-08-05T13:27:57.524Z,36.10
2022-08-05T13:33:01.416Z,36.12
2022-08-05T13:38:04.975Z,36.13
2022-08-05T13:43:11.934Z,36.10
2022-08-05T13:48:57.696Z,36.12
2022-08-05T13:53:47.680Z,36.05
2022-08-05T13:58:51.328Z,35.87
2022-08-05T14:04:14.128Z,35.62
2022-08-05T14:09:16.219Z,35.68
2022-08-05T14:14:23.131Z,35.74
2022-08-05T14:19:28.718Z,35.78
2022-08-05T14:24:31.221Z,35.78
2022-08-05T14:29:34.690Z,35.82
2022-08-05T14:34:36.571Z,35.67
2022-08-05T14:39:49.419Z,35.77
2022-08-05T14:44:58.488Z,35.68
2022-08-05T14:50:06.664Z,35.85
2022-08-05T14:55:16.043Z,35.93
2022-08-05T15:00:20.034Z,35.80
2022-08-05T15:05:22.002Z,35.82
2022-08-05T15:10:32.047Z,35.76
2022-08-05T15:15:54.249Z,35.56
2022-08-05T15:20:55.832Z,35.48
2022-08-05T15:26:02.757Z,35.82
2022-08-05T15:31:05.706Z,35.79
2022-08-05T15:36:16.798Z,35.74
2022-08-05T15:41:22.375Z,35.67
2022-08-05T15:46:25.312Z,35.86
2022-08-05T15:52:04.356Z,35.88
2022-08-05T15:56:49.757Z,35.82
2022-08-05T16:01:52.930Z,35.68
2022-08-05T16:06:55.673Z,35.83
2022-08-05T16:11:57.646Z,35.83
2022-08-05T16:16:59.762Z,35.81
2022-08-05T16:22:02.926Z,35.81
2022-08-05T16:27:07.387Z,35.95
2022-08-05T16:32:09.652Z,36.03
2022-08-05T16:38:03.072Z,36.00
2022-08-05T16:42:34.698Z,35.88
2022-08-05T16:47:48.401Z,35.54
2022-08-05T16:52:57.505Z,35.77
2022-08-05T16:58:01.486Z,35.71
2022-08-05T17:03:15.463Z,35.46
2022-08-05T17:08:36.100Z,35.41
2022-08-05T17:13:45.472Z,35.36
2022-08-05T17:18:47.386Z,35.23
2022-08-05T17:24:04.371Z,35.13
2022-08-05T17:29:12.537Z,34.99
2022-08-05T17:34:19.477Z,34.84
2022-08-05T17:39:33.976Z,34.85
2022-08-05T17:44:36.635Z,35.00
2022-08-05T17:50:00.334Z,35.00
2022-08-05T17:55:03.103Z,34.71
2022-08-05T18:00:06.268Z,34.48
2022-08-05T18:05:09.253Z,34.30
2022-08-05T18:10:20.958Z,34.22
2022-08-05T18:15:24.453Z,33.98
2022-08-05T18:20:29.145Z,33.96
2022-08-05T18:25:33.638Z,33.82
2022-08-05T18:30:39.027Z,33.80
2022-08-05T18:36:00.981Z,33.81
2022-08-05T18:41:55.688Z,33.80
2022-08-05T18:46:29.300Z,33.68
2022-08-05T18:51:49.711Z,33.58
2022-08-05T18:57:09.770Z,33.54
2022-08-05T19:02:28.286Z,33.53
2022-08-05T19:07:45.417Z,33.15
2022-08-05T19:12:49.108Z,32.84
2022-08-05T19:17:59.788Z,32.69
2022-08-05T19:24:04.987Z,32.55
2022-08-05T19:28:35.062Z,32.46
2022-08-05T19:33:38.237Z,32.25
2022-08-05T19:38:43.951Z,32.24
2022-08-05T19:44:06.134Z,32.19
2022-08-05T19:49:08.322Z,32.05
2022-08-05T19:54:26.706Z,31.67
2022-08-05T19:59:56.657Z,31.63
2022-08-05T20:04:58.823Z,31.58
2022-08-05T20:10:01.250Z,31.73
2022-08-05T20:15:03.342Z,31.71
2022-08-05T20:20:11.138Z,31.67
2022-08-05T20:25:13.021Z,31.58
2022-08-05T20:30:15.255Z,31.49
2022-08-05T20:35:21.647Z,31.32
2022-08-05T20:40:23.955Z,31.40
2022-08-05T20:45:56.721Z,31.23
2022-08-05T20:50:47.979Z,31.07
2022-08-05T20:55:55.491Z,30.90
2022-08-05T21:01:10.043Z,30.75
2022-08-05T21:06:27.996Z,30.61
2022-08-05T21:12:09.147Z,30.52
2022-08-05T21:16:52.351Z,30.60
2022-08-05T21:21:54.341Z,30.58
2022-08-05T21:26:58.709Z,30.43
2022-08-05T21:32:04.454Z,30.32
2022-08-05T21:37:08.273Z,30.22
2022-08-05T21:42:40.914Z,30.09
2022-08-05T21:47:56.478Z,29.94
2022-08-05T21:52:58.778Z,29.85
2022-08-05T21:58:06.420Z,29.71
2022-08-05T22:03:09.771Z,29.58
2022-08-05T22:08:22.110Z,29.54
2022-08-05T22:14:19.431Z,29.40
2022-08-05T22:18:49.168Z,29.22
2022-08-05T22:24:13.316Z,29.07
2022-08-05T22:29:33.062Z,28.98
2022-08-05T22:34:35.284Z,28.92
2022-08-05T22:39:38.363Z,28.87
2022-08-05T22:44:46.990Z,28.87
2022-08-05T22:50:20.111Z,28.78
2022-08-05T22:55:19.168Z,28.75
2022-08-05T23:00:23.934Z,28.61
2022-08-05T23:05:25.834Z,28.58
2022-08-05T23:10:28.876Z,28.53
2022-08-05T23:15:35.360Z,28.51
2022-08-05T23:20:38.385Z,28.59
2022-08-05T23:25:51.904Z,28.49
2022-08-05T23:31:14.783Z,28.51
2022-08-05T23:36:19.565Z,28.39
2022-08-05T23:41:21.540Z,28.32
2022-08-05T23:46:23.733Z,28.22
2022-08-05T23:51:25.599Z,28.24
2022-08-05T23:56:28.058Z,28.07
